Time;durP1;ratioP1;P1;durP2;ratioP2;P2;SDS_P1;SDS_P2;PMS_P1;PMS_P2;Temp;Humidity;BMP_temperature;BMP_pressure;BME280_temperature;BME280_humidity;BME280_pressure;Samples;Min_cycle;Max_cycle;Signal;HPM_P1;HPM_P2
2021/08/25 00:00:01;;;;;;;7.35;6.65;;;13.50;99.90;;;;;;1915262;75;21140;-78
2021/08/25 00:02:27;;;;;;;6.83;6.05;;;13.50;99.90;;;;;;1904820;74;21564;-78
2021/08/25 00:04:54;;;;;;;6.78;6.17;;;13.40;99.90;;;;;;1899668;74;21074;-78
2021/08/25 00:07:21;;;;;;;6.55;6.00;;;13.40;99.90;;;;;;1905072;74;21088;-78
2021/08/25 00:09:47;;;;;;;7.50;6.78;;;13.40;99.90;;;;;;1901065;74;21090;-78
2021/08/25 00:12:13;;;;;;;7.75;7.05;;;13.30;99.90;;;;;;1903686;74;21179;-78
2021/08/25 00:14:40;;;;;;;7.72;7.03;;;13.30;99.90;;;;;;1902358;75;21086;-78
2021/08/25 00:17:07;;;;;;;7.12;6.50;;;13.20;99.90;;;;;;1913791;75;21478;-78
2021/08/25 00:19:33;;;;;;;8.45;6.80;;;13.20;99.90;;;;;;1910335;74;21085;-78
2021/08/25 00:21:59;;;;;;;6.95;6.22;;;13.20;99.90;;;;;;1899348;74;21081;-78
2021/08/25 00:24:25;;;;;;;7.10;6.45;;;13.20;99.90;;;;;;1903315;75;21043;-78
2021/08/25 00:26:51;;;;;;;9.23;6.55;;;13.10;99.90;;;;;;1890590;74;21193;-78
2021/08/25 00:29:18;;;;;;;7.85;6.22;;;13.20;99.90;;;;;;1910353;74;21074;-78
2021/08/25 00:31:44;;;;;;;6.78;6.28;;;13.10;99.90;;;;;;1910522;74;21093;-78
2021/08/25 00:34:10;;;;;;;10.78;6.22;;;13.10;99.90;;;;;;1903847;74;21039;-78
2021/08/25 00:36:36;;;;;;;7.40;6.70;;;13.10;99.90;;;;;;1915413;75;21102;-78
2021/08/25 00:39:02;;;;;;;7.95;7.15;;;13.00;99.90;;;;;;1909077;75;21178;-78
2021/08/25 00:41:28;;;;;;;6.65;6.05;;;13.00;99.90;;;;;;1908427;74;21090;-78
2021/08/25 00:43:54;;;;;;;7.75;6.80;;;13.00;99.90;;;;;;1904077;75;21469;-78
2021/08/25 00:46:20;;;;;;;7.85;7.05;;;13.00;99.90;;;;;;1903247;74;21483;-78
2021/08/25 00:48:47;;;;;;;8.55;6.85;;;13.00;99.90;;;;;;1899807;74;21469;-78
2021/08/25 00:51:13;;;;;;;7.58;6.72;;;13.00;99.90;;;;;;1909322;74;21069;-78
2021/08/25 00:53:39;;;;;;;9.90;6.90;;;13.00;99.90;;;;;;1907029;75;21124;-78
2021/08/25 00:56:05;;;;;;;6.80;6.20;;;13.00;99.90;;;;;;1913347;74;21128;-79
2021/08/25 00:58:31;;;;;;;8.25;6.97;;;12.90;99.90;;;;;;1902821;74;21081;-78
2021/08/25 01:01:02;;;;;;;12.75;6.80;;;12.90;99.90;;;;;;1903278;74;21159;-78
2021/08/25 01:03:25;;;;;;;6.75;6.17;;;12.90;99.90;;;;;;1907492;73;21169;-78
2021/08/25 01:05:51;;;;;;;7.40;6.67;;;12.90;99.90;;;;;;1897034;74;21196;-78
2021/08/25 01:08:17;;;;;;;13.98;7.03;;;12.70;99.90;;;;;;1908290;74;21069;-78
2021/08/25 01:10:44;;;;;;;6.70;6.05;;;12.70;99.90;;;;;;1893773;74;21236;-79
2021/08/25 01:13:10;;;;;;;10.53;6.70;;;12.60;99.90;;;;;;1906272;74;21067;-78
2021/08/25 01:15:36;;;;;;;6.47;5.90;;;12.70;99.90;;;;;;1906949;75;21070;-78
2021/08/25 01:18:02;;;;;;;10.23;6.10;;;12.70;99.90;;;;;;1901165;74;21212;-78
2021/08/25 01:20:28;;;;;;;6.55;6.05;;;12.60;99.90;;;;;;1910298;75;21081;-79
2021/08/25 01:22:54;;;;;;;8.98;7.00;;;12.70;99.90;;;;;;1915327;75;21087;-79
2021/08/25 01:25:20;;;;;;;7.08;6.30;;;12.70;99.90;;;;;;1901142;74;21086;-78
2021/08/25 01:27:46;;;;;;;7.75;6.75;;;12.60;99.90;;;;;;1903194;75;21090;-79
2021/08/25 01:30:13;;;;;;;7.25;6.58;;;12.60;99.90;;;;;;1905879;75;21217;-78
2021/08/25 01:32:39;;;;;;;8.05;7.28;;;12.70;99.90;;;;;;1913514;74;21048;-78
2021/08/25 01:35:05;;;;;;;8.63;7.83;;;12.70;99.90;;;;;;1915449;75;21090;-78
2021/08/25 01:37:31;;;;;;;7.83;6.62;;;12.60;99.90;;;;;;1905368;74;21113;-78
2021/08/25 01:39:57;;;;;;;9.50;6.85;;;12.60;99.90;;;;;;1910365;75;21148;-78
2021/08/25 01:42:23;;;;;;;7.95;7.25;;;12.60;99.90;;;;;;1896061;74;21077;-78
2021/08/25 01:44:49;;;;;;;12.80;7.87;;;12.50;99.90;;;;;;1906706;75;21055;-78
2021/08/25 01:47:16;;;;;;;8.23;7.03;;;12.50;99.90;;;;;;1915300;74;21164;-78
2021/08/25 01:49:42;;;;;;;20.02;7.30;;;12.60;99.90;;;;;;1911683;73;21218;-78
2021/08/25 01:52:08;;;;;;;7.67;6.83;;;12.50;99.90;;;;;;1908532;72;21204;-79
2021/08/25 01:54:34;;;;;;;8.93;7.85;;;12.50;99.90;;;;;;1917728;73;21324;-78
2021/08/25 01:57:00;;;;;;;9.65;7.70;;;12.40;99.90;;;;;;1915523;75;21111;-78
2021/08/25 01:59:26;;;;;;;8.65;7.00;;;12.40;99.90;;;;;;1915412;75;21103;-78
2021/08/25 02:01:52;;;;;;;9.53;7.95;;;12.40;99.90;;;;;;1907061;74;21133;-78
2021/08/25 02:04:18;;;;;;;7.90;7.05;;;12.40;99.90;;;;;;1906930;75;21066;-78
2021/08/25 02:06:45;;;;;;;7.40;6.70;;;12.40;99.90;;;;;;1909540;75;21109;-78
2021/08/25 02:09:11;;;;;;;7.75;6.95;;;12.30;99.90;;;;;;1904916;75;21078;-78
2021/08/25 02:11:37;;;;;;;7.53;6.87;;;12.30;99.90;;;;;;1905057;74;21093;-78
2021/08/25 02:14:03;;;;;;;7.33;6.70;;;12.20;99.90;;;;;;1905356;74;21195;-78
2021/08/25 02:16:29;;;;;;;8.50;7.62;;;12.20;99.90;;;;;;1914860;74;21083;-79
2021/08/25 02:18:55;;;;;;;7.80;6.87;;;12.10;99.90;;;;;;1907986;75;21152;-79
2021/08/25 02:21:23;;;;;;;9.05;6.78;;;12.10;99.90;;;;;;1932918;73;21086;-75
2021/08/25 02:23:49;;;;;;;9.08;6.62;;;12.10;99.90;;;;;;1911705;74;21093;-75
2021/08/25 02:26:19;;;;;;;10.93;7.03;;;12.00;99.90;;;;;;1909842;74;21082;-76
2021/08/25 02:28:43;;;;;;;12.07;6.92;;;12.00;99.90;;;;;;1914703;75;21150;-75
2021/08/25 02:31:09;;;;;;;6.80;6.10;;;12.00;99.90;;;;;;1915487;74;21078;-75
2021/08/25 02:33:35;;;;;;;9.50;6.92;;;12.00;99.90;;;;;;1915899;75;21168;-76
2021/08/25 02:36:01;;;;;;;10.98;7.15;;;12.10;99.90;;;;;;1913514;75;21082;-79
2021/08/25 02:38:27;;;;;;;8.13;7.05;;;12.10;99.90;;;;;;1913659;75;21156;-77
2021/08/25 02:40:53;;;;;;;9.63;7.03;;;12.10;99.90;;;;;;1908899;75;21148;-76
2021/08/25 02:43:19;;;;;;;10.05;7.05;;;12.10;99.90;;;;;;1908777;74;21059;-77
2021/08/25 02:45:46;;;;;;;8.35;6.78;;;12.10;99.90;;;;;;1901275;74;21081;-78
2021/08/25 02:48:12;;;;;;;9.03;7.10;;;12.00;99.90;;;;;;1907671;74;21081;-78
2021/08/25 02:50:38;;;;;;;7.33;6.65;;;12.10;99.90;;;;;;1908777;74;21097;-78
2021/08/25 02:53:04;;;;;;;8.28;6.72;;;12.00;99.90;;;;;;1916944;75;21130;-78
2021/08/25 02:55:30;;;;;;;8.20;7.03;;;12.00;99.90;;;;;;1897709;74;21163;-78
2021/08/25 02:57:58;;;;;;;10.20;6.87;;;12.00;99.90;;;;;;1907055;75;21148;-79
2021/08/25 03:00:24;;;;;;;8.18;7.37;;;11.90;99.90;;;;;;1908658;74;21090;-78
2021/08/25 03:02:50;;;;;;;9.08;7.67;;;11.90;99.90;;;;;;1901775;75;21039;-79
2021/08/25 03:05:16;;;;;;;10.32;7.53;;;11.80;99.90;;;;;;1905652;74;21188;-79
2021/08/25 03:07:42;;;;;;;8.78;7.87;;;11.80;99.90;;;;;;1894344;74;21158;-78
2021/08/25 03:10:08;;;;;;;8.98;7.28;;;11.80;99.90;;;;;;1907365;74;21080;-78
2021/08/25 03:12:34;;;;;;;13.22;8.60;;;11.80;99.90;;;;;;1907016;74;21118;-78
2021/08/25 03:15:00;;;;;;;8.38;7.50;;;11.80;99.90;;;;;;1907869;75;21148;-78
2021/08/25 03:17:27;;;;;;;8.63;7.25;;;11.80;99.90;;;;;;1907007;75;21070;-78
2021/08/25 03:19:53;;;;;;;8.45;7.45;;;11.80;99.90;;;;;;1904220;74;21141;-78
2021/08/25 03:22:19;;;;;;;8.05;7.35;;;11.80;99.90;;;;;;1906972;74;21082;-79
2021/08/25 03:24:45;;;;;;;11.75;7.90;;;11.80;99.90;;;;;;1905209;74;21098;-78
2021/08/25 03:27:11;;;;;;;9.45;8.35;;;11.80;99.90;;;;;;1904631;74;21159;-79
2021/08/25 03:29:37;;;;;;;9.05;8.15;;;11.90;99.90;;;;;;1909844;75;21099;-77
2021/08/25 03:32:03;;;;;;;9.63;8.45;;;11.90;99.90;;;;;;1897976;74;21149;-78
2021/08/25 03:34:29;;;;;;;9.10;7.90;;;11.90;99.90;;;;;;1905098;75;21478;-79
2021/08/25 03:36:56;;;;;;;11.35;8.23;;;11.90;99.90;;;;;;1915411;74;21538;-79
2021/08/25 03:39:22;;;;;;;10.60;9.08;;;12.00;99.90;;;;;;1910305;74;21513;-78
2021/08/25 03:41:48;;;;;;;8.98;8.08;;;12.00;99.90;;;;;;1906373;74;21619;-79
2021/08/25 03:44:14;;;;;;;9.15;8.18;;;12.00;99.90;;;;;;1909912;75;21530;-79
2021/08/25 03:46:40;;;;;;;9.63;7.60;;;12.00;99.90;;;;;;1915438;75;21539;-79
2021/08/25 03:49:06;;;;;;;11.30;7.85;;;12.00;99.90;;;;;;1905186;74;21509;-79
2021/08/25 03:51:32;;;;;;;10.80;7.60;;;11.90;99.90;;;;;;1906041;75;21077;-78
2021/08/25 03:53:58;;;;;;;8.93;8.03;;;11.90;99.90;;;;;;1915377;75;21109;-79
2021/08/25 03:56:25;;;;;;;13.03;10.10;;;12.00;99.90;;;;;;1913235;74;21035;-79
2021/08/25 03:58:51;;;;;;;12.10;9.58;;;11.90;99.90;;;;;;1907813;74;21081;-79
2021/08/25 04:01:17;;;;;;;24.70;10.25;;;11.90;99.90;;;;;;1894637;74;21073;-77
2021/08/25 04:03:43;;;;;;;10.63;9.53;;;11.90;99.90;;;;;;1900515;74;21192;-77
2021/08/25 04:06:09;;;;;;;9.88;8.83;;;11.90;99.90;;;;;;1906680;75;21074;-77
2021/08/25 04:08:35;;;;;;;10.70;9.40;;;12.00;99.90;;;;;;1917708;74;21067;-77
2021/08/25 04:11:01;;;;;;;10.25;9.25;;;11.90;99.90;;;;;;1902287;75;21074;-79
2021/08/25 04:13:27;;;;;;;16.93;9.78;;;11.90;99.90;;;;;;1913002;74;21103;-79
2021/08/25 04:15:53;;;;;;;11.70;9.35;;;11.90;99.90;;;;;;1902593;75;21139;-79
2021/08/25 04:18:20;;;;;;;11.78;10.58;;;11.80;99.90;;;;;;1912651;75;21159;-77
2021/08/25 04:20:46;;;;;;;11.68;10.48;;;11.80;99.90;;;;;;1903165;74;21151;-76
2021/08/25 04:23:12;;;;;;;11.90;10.60;;;11.80;99.90;;;;;;1899797;74;21082;-79
2021/08/25 04:25:38;;;;;;;13.20;10.08;;;11.80;99.90;;;;;;1906207;74;21152;-79
2021/08/25 04:28:04;;;;;;;11.57;9.93;;;11.90;99.90;;;;;;1906391;75;21124;-77
2021/08/25 04:30:30;;;;;;;13.55;10.32;;;11.80;99.90;;;;;;1901331;74;21039;-77
2021/08/25 04:32:56;;;;;;;16.10;11.28;;;11.80;99.90;;;;;;1911940;75;21165;-77
2021/08/25 04:35:23;;;;;;;16.80;10.35;;;11.90;99.90;;;;;;1915492;75;21082;-77
2021/08/25 04:37:49;;;;;;;10.23;9.23;;;11.90;99.90;;;;;;1910288;74;21086;-77
2021/08/25 04:40:15;;;;;;;11.15;10.00;;;11.80;99.90;;;;;;1915593;75;21111;-78
2021/08/25 04:42:41;;;;;;;13.62;9.70;;;11.80;99.90;;;;;;1915616;75;21132;-77
2021/08/25 04:45:07;;;;;;;14.33;9.25;;;11.80;99.90;;;;;;1915422;75;21087;-77
2021/08/25 04:47:33;;;;;;;11.43;10.23;;;11.90;99.90;;;;;;1911248;75;21767;-77
2021/08/25 04:49:59;;;;;;;11.97;9.83;;;11.90;99.90;;;;;;1903157;75;21505;-77
2021/08/25 04:52:25;;;;;;;11.48;10.38;;;11.80;99.90;;;;;;1910227;75;21202;-77
2021/08/25 04:54:52;;;;;;;13.80;10.20;;;11.80;99.90;;;;;;1915474;75;21043;-77
2021/08/25 04:57:18;;;;;;;12.37;10.70;;;11.80;99.90;;;;;;1915263;74;21111;-77
2021/08/25 04:59:44;;;;;;;12.13;10.13;;;11.70;99.90;;;;;;1905457;74;21081;-77
2021/08/25 05:02:10;;;;;;;15.45;11.35;;;11.80;99.90;;;;;;1908608;75;21055;-78
2021/08/25 05:04:36;;;;;;;11.90;10.68;;;11.80;99.90;;;;;;1910444;75;21074;-78
2021/08/25 05:07:02;;;;;;;17.60;10.63;;;11.90;99.90;;;;;;1896825;74;21090;-78
2021/08/25 05:09:28;;;;;;;12.65;10.72;;;11.90;99.90;;;;;;1912775;75;21117;-78
2021/08/25 05:11:55;;;;;;;12.03;10.00;;;12.00;99.90;;;;;;1915335;75;21074;-78
2021/08/25 05:14:21;;;;;;;12.45;10.93;;;12.00;99.90;;;;;;1912336;74;21107;-78
2021/08/25 05:16:48;;;;;;;11.12;9.90;;;12.10;99.90;;;;;;1910842;74;21094;-77
2021/08/25 05:19:14;;;;;;;11.57;10.38;;;12.00;99.90;;;;;;1900380;74;21082;-79
2021/08/25 05:21:40;;;;;;;10.40;9.45;;;12.00;99.90;;;;;;1907476;75;21082;-80
2021/08/25 05:24:06;;;;;;;11.30;8.68;;;12.10;99.90;;;;;;1915096;75;21114;-79
2021/08/25 05:26:32;;;;;;;14.47;9.30;;;12.10;99.90;;;;;;1910209;74;21069;-79
2021/08/25 05:28:58;;;;;;;10.10;8.85;;;12.10;99.90;;;;;;1915509;75;21120;-79
2021/08/25 05:31:24;;;;;;;14.15;10.20;;;12.10;99.90;;;;;;1908942;74;21082;-78
2021/08/25 05:33:50;;;;;;;11.35;10.15;;;12.20;99.90;;;;;;1905160;74;21166;-79
2021/08/25 05:36:17;;;;;;;11.08;9.80;;;12.10;99.90;;;;;;1912649;74;21209;-80
2021/08/25 05:38:43;;;;;;;11.33;10.15;;;12.30;99.90;;;;;;1914620;75;21185;-80
2021/08/25 05:41:09;;;;;;;13.10;9.98;;;12.20;99.90;;;;;;1904996;74;21159;-79
2021/08/25 05:43:37;;;;;;;10.05;9.00;;;12.30;99.90;;;;;;1900544;75;21144;-79
2021/08/25 05:46:03;;;;;;;10.05;8.53;;;12.30;99.90;;;;;;1908543;75;21483;-79
2021/08/25 05:48:29;;;;;;;14.47;9.35;;;12.40;99.90;;;;;;1910934;75;21356;-79
2021/08/25 05:50:55;;;;;;;13.75;9.63;;;12.50;99.90;;;;;;1910513;75;21122;-79
2021/08/25 05:53:21;;;;;;;9.75;8.78;;;12.50;99.90;;;;;;1915371;75;21067;-79
2021/08/25 05:55:47;;;;;;;11.43;9.58;;;12.60;99.90;;;;;;1903645;74;21085;-79
2021/08/25 05:58:13;;;;;;;13.05;9.73;;;12.70;99.90;;;;;;1915306;74;21099;-79
2021/08/25 06:00:39;;;;;;;10.00;9.10;;;12.70;99.90;;;;;;1915235;75;21098;-79
2021/08/25 06:03:06;;;;;;;10.90;9.78;;;12.70;99.90;;;;;;1915455;75;21103;-79
2021/08/25 06:05:32;;;;;;;11.40;9.85;;;12.80;99.90;;;;;;1915289;75;21140;-79
2021/08/25 06:07:58;;;;;;;13.05;11.30;;;12.90;99.90;;;;;;1903500;75;21055;-79
2021/08/25 06:10:24;;;;;;;11.05;9.95;;;12.90;99.90;;;;;;1903772;74;21203;-79
2021/08/25 06:12:50;;;;;;;11.00;9.90;;;13.00;99.90;;;;;;1904879;74;21078;-79
2021/08/25 06:15:16;;;;;;;11.50;10.23;;;13.10;99.90;;;;;;1906302;74;21082;-79
2021/08/25 06:17:42;;;;;;;13.03;10.10;;;13.20;99.90;;;;;;1907795;74;21082;-79
2021/08/25 06:20:08;;;;;;;11.00;9.90;;;13.30;99.90;;;;;;1906749;75;21148;-79
2021/08/25 06:22:35;;;;;;;12.20;10.40;;;13.40;99.90;;;;;;1910452;75;21182;-79
2021/08/25 06:25:01;;;;;;;12.90;9.58;;;13.40;99.90;;;;;;1908502;75;21137;-79
2021/08/25 06:27:27;;;;;;;14.78;10.32;;;13.50;99.90;;;;;;1904842;75;21074;-79
2021/08/25 06:29:53;;;;;;;10.10;8.70;;;13.60;99.90;;;;;;1902808;75;21159;-80
2021/08/25 06:32:19;;;;;;;11.80;9.28;;;13.70;99.90;;;;;;1897513;75;21153;-79
2021/08/25 06:34:45;;;;;;;10.18;8.48;;;13.90;99.90;;;;;;1910062;75;21096;-79
2021/08/25 06:37:11;;;;;;;10.58;8.08;;;14.00;99.90;;;;;;1915246;75;21078;-79
2021/08/25 06:39:37;;;;;;;8.90;7.65;;;14.10;99.90;;;;;;1901988;74;21055;-79
2021/08/25 06:42:04;;;;;;;8.65;7.12;;;14.20;99.90;;;;;;1907508;75;21082;-79
2021/08/25 06:44:30;;;;;;;9.53;7.58;;;14.40;99.90;;;;;;1903475;74;21213;-80
2021/08/25 06:46:56;;;;;;;7.20;6.28;;;14.60;99.90;;;;;;1903949;75;21090;-79
2021/08/25 06:49:22;;;;;;;8.40;6.40;;;14.70;99.90;;;;;;1896299;74;21043;-79
2021/08/25 06:51:48;;;;;;;7.72;6.55;;;14.80;99.90;;;;;;1904567;74;21152;-79
2021/08/25 06:54:14;;;;;;;10.85;6.72;;;14.90;99.90;;;;;;1913971;75;21125;-79
2021/08/25 06:56:40;;;;;;;10.05;6.42;;;15.00;99.90;;;;;;1910491;74;21171;-79
2021/08/25 06:59:06;;;;;;;6.70;5.80;;;15.10;99.90;;;;;;1900429;74;21070;-79
2021/08/25 07:01:33;;;;;;;6.70;5.47;;;15.10;99.90;;;;;;1910355;74;21094;-79
2021/08/25 07:03:59;;;;;;;7.05;5.55;;;15.30;99.90;;;;;;1909666;73;21054;-79
2021/08/25 07:06:25;;;;;;;8.00;5.22;;;15.50;99.90;;;;;;1912399;73;21177;-80
2021/08/25 07:08:51;;;;;;;7.83;4.83;;;15.50;99.90;;;;;;1903720;72;21066;-80
2021/08/25 07:11:17;;;;;;;5.67;4.85;;;15.70;99.90;;;;;;1907783;74;21515;-79
2021/08/25 07:13:44;;;;;;;5.72;4.45;;;15.80;99.90;;;;;;1937744;74;21128;-78
2021/08/25 07:16:14;;;;;;;4.30;3.72;;;15.80;99.90;;;;;;1897751;74;21145;-78
2021/08/25 07:18:43;;;;;;;;;;;16.10;99.90;;;;;;1903321;74;21098;-77
2021/08/25 07:21:08;;;;;;;4.20;3.20;;;16.10;99.90;;;;;;1913137;75;20165;-77
2021/08/25 07:23:34;;;;;;;4.15;2.77;;;16.30;99.90;;;;;;1915492;75;21130;-77
2021/08/25 07:26:00;;;;;;;5.58;3.47;;;16.50;99.90;;;;;;1907655;74;21074;-77
2021/08/25 07:28:26;;;;;;;9.85;3.75;;;16.60;99.90;;;;;;1907032;74;21156;-78
2021/08/25 07:30:53;;;;;;;4.42;2.60;;;16.60;99.90;;;;;;1893401;74;21094;-77
2021/08/25 07:33:20;;;;;;;3.22;2.92;;;16.80;99.90;;;;;;1900607;75;21090;-77
2021/08/25 07:35:48;;;;;;;3.10;2.80;;;16.90;99.90;;;;;;1904864;74;21057;-77
2021/08/25 07:38:14;;;;;;;6.72;2.98;;;17.00;99.90;;;;;;1915646;75;21184;-77
2021/08/25 07:40:40;;;;;;;3.42;2.90;;;17.00;99.90;;;;;;1912594;74;21086;-77
2021/08/25 07:43:07;;;;;;;3.35;3.02;;;17.20;99.90;;;;;;1903167;75;21163;-77
2021/08/25 07:45:37;;;;;;;3.00;2.70;;;17.30;99.90;;;;;;1907665;75;21039;-79
2021/08/25 07:48:03;;;;;;;3.10;2.72;;;17.50;99.90;;;;;;1908049;75;21091;-78
2021/08/25 07:50:29;;;;;;;12.75;2.80;;;17.80;99.90;;;;;;1913297;75;21047;-78
2021/08/25 07:52:55;;;;;;;3.72;2.67;;;18.40;99.90;;;;;;1915480;75;21148;-78
2021/08/25 07:55:21;;;;;;;2.58;2.37;;;18.50;99.90;;;;;;1902182;74;21148;-77
2021/08/25 07:57:47;;;;;;;6.58;3.08;;;18.50;99.90;;;;;;1910284;74;21055;-78
2021/08/25 08:00:13;;;;;;;4.17;2.98;;;18.80;99.90;;;;;;1910365;74;21094;-77
2021/08/25 08:02:39;;;;;;;5.67;2.65;;;18.90;99.90;;;;;;1915540;75;21095;-77
2021/08/25 08:05:06;;;;;;;2.85;2.37;;;19.30;99.90;;;;;;1897071;74;21089;-77
2021/08/25 08:07:32;;;;;;;4.50;3.00;;;19.30;99.90;;;;;;1905018;75;21077;-77
2021/08/25 08:09:58;;;;;;;4.08;2.70;;;19.60;99.90;;;;;;1903568;74;21077;-77
2021/08/25 08:12:24;;;;;;;3.27;2.98;;;19.50;99.90;;;;;;1915532;74;21200;-76
2021/08/25 08:14:50;;;;;;;4.50;3.02;;;19.30;99.90;;;;;;1915457;74;21119;-76
2021/08/25 08:17:17;;;;;;;2.83;2.40;;;19.40;99.90;;;;;;1910617;74;21579;-76
2021/08/25 08:19:43;;;;;;;4.10;3.15;;;19.20;99.90;;;;;;1914962;74;21126;-77
2021/08/25 08:22:09;;;;;;;3.50;2.87;;;19.30;99.90;;;;;;1900362;75;21078;-76
2021/08/25 08:24:35;;;;;;;3.60;2.70;;;19.50;99.90;;;;;;1900490;75;21195;-76
2021/08/25 08:27:01;;;;;;;4.42;2.87;;;19.60;99.90;;;;;;1905598;74;21058;-77
2021/08/25 08:29:27;;;;;;;3.12;2.50;;;20.10;99.90;;;;;;1905609;74;21118;-75
2021/08/25 08:31:53;;;;;;;4.20;2.85;;;19.80;99.90;;;;;;1905258;74;21151;-76
2021/08/25 08:34:20;;;;;;;4.37;3.02;;;19.90;99.90;;;;;;1910443;74;21087;-75
2021/08/25 08:36:46;;;;;;;6.00;2.90;;;19.90;99.90;;;;;;1911935;74;21059;-75
2021/08/25 08:39:14;;;;;;;8.43;3.27;;;20.00;99.90;;;;;;1912105;75;21074;-75
2021/08/25 08:41:40;;;;;;;4.35;3.00;;;19.80;99.90;;;;;;1908329;74;21070;-74
2021/08/25 08:44:06;;;;;;;2.95;2.50;;;19.90;99.90;;;;;;1913340;75;21090;-75
2021/08/25 08:46:32;;;;;;;3.90;3.05;;;20.20;99.90;;;;;;1909835;74;21082;-75
2021/08/25 08:48:59;;;;;;;4.15;3.12;;;20.30;99.90;;;;;;1911981;74;21047;-75
2021/08/25 08:51:25;;;;;;;3.92;2.65;;;20.10;99.90;;;;;;1908711;74;21178;-75
2021/08/25 08:53:51;;;;;;;5.55;3.00;;;20.70;99.90;;;;;;1910507;74;21093;-75
2021/08/25 08:56:17;;;;;;;3.92;2.45;;;20.50;99.90;;;;;;1909002;74;21175;-74
2021/08/25 08:58:44;;;;;;;4.03;2.90;;;20.50;99.90;;;;;;1912339;74;21085;-75
2021/08/25 09:01:10;;;;;;;3.17;2.58;;;20.60;99.90;;;;;;1915615;75;21596;-75
2021/08/25 09:03:36;;;;;;;4.50;2.67;;;20.80;99.90;;;;;;1913353;75;21531;-75
2021/08/25 09:06:02;;;;;;;4.33;2.67;;;21.00;99.90;;;;;;1905980;74;21600;-75
2021/08/25 09:08:28;;;;;;;2.67;2.47;;;20.60;99.90;;;;;;1906668;74;21485;-76
2021/08/25 09:10:54;;;;;;;4.62;2.52;;;20.40;99.90;;;;;;1909366;74;21116;-76
2021/08/25 09:13:20;;;;;;;5.53;3.00;;;20.60;99.90;;;;;;1899687;74;21072;-76
2021/08/25 09:15:46;;;;;;;4.05;2.62;;;21.30;99.90;;;;;;1898432;74;21058;-76
2021/08/25 09:18:13;;;;;;;2.70;2.50;;;20.90;99.90;;;;;;1913764;74;21074;-76
2021/08/25 09:20:54;;;;;;;3.30;2.30;;;21.00;99.90;;;;;;1909844;74;21090;-81
2021/08/25 09:23:20;;;;;;;4.05;2.62;;;20.90;99.90;;;;;;1907607;74;21518;-77
2021/08/25 09:25:46;;;;;;;4.87;3.08;;;21.20;99.90;;;;;;1921731;74;21466;-77
2021/08/25 09:28:12;;;;;;;4.40;2.65;;;20.90;99.90;;;;;;1903940;74;21462;-75
2021/08/25 09:30:38;;;;;;;3.40;2.42;;;21.00;99.90;;;;;;1907512;74;21506;-75
2021/08/25 09:33:05;;;;;;;7.20;2.55;;;21.20;99.90;;;;;;1893551;74;21555;-76
2021/08/25 09:35:31;;;;;;;5.87;2.47;;;20.90;99.90;;;;;;1905330;74;21576;-77
2021/08/25 09:37:59;;;;;;;3.80;2.67;;;21.10;99.90;;;;;;1904195;74;21493;-78
2021/08/25 09:40:25;;;;;;;3.33;2.83;;;21.80;99.90;;;;;;1907870;73;21130;-77
2021/08/25 09:42:51;;;;;;;3.87;3.25;;;21.70;99.90;;;;;;1896109;74;21098;-76
2021/08/25 09:45:17;;;;;;;4.90;2.90;;;22.50;99.90;;;;;;1911952;75;21051;-75
2021/08/25 09:47:43;;;;;;;3.58;2.98;;;21.80;99.90;;;;;;1908897;74;21156;-76
2021/08/25 09:50:09;;;;;;;6.90;3.27;;;21.70;99.90;;;;;;1911924;75;21062;-75
2021/08/25 09:52:35;;;;;;;4.42;2.98;;;21.60;99.90;;;;;;1905546;74;21208;-75
2021/08/25 09:55:01;;;;;;;4.85;2.75;;;21.40;99.90;;;;;;1896855;74;21559;-75
2021/08/25 09:57:27;;;;;;;3.45;3.05;;;21.60;99.90;;;;;;1907112;74;21590;-75
2021/08/25 09:59:54;;;;;;;4.05;2.80;;;22.10;99.90;;;;;;1903061;74;21474;-76
2021/08/25 10:02:20;;;;;;;4.28;2.80;;;22.30;99.90;;;;;;1913473;74;21471;-75
2021/08/25 10:04:46;;;;;;;4.45;2.72;;;22.20;99.90;;;;;;1910186;74;21497;-75
2021/08/25 10:07:12;;;;;;;4.33;2.33;;;22.40;99.90;;;;;;1912041;75;21506;-75
2021/08/25 10:09:38;;;;;;;2.65;2.45;;;22.80;99.90;;;;;;1904990;74;21082;-76
2021/08/25 10:12:04;;;;;;;3.33;2.33;;;22.60;99.90;;;;;;1913350;75;21106;-75
2021/08/25 10:14:31;;;;;;;3.42;2.62;;;22.50;99.90;;;;;;1912128;75;21039;-74
2021/08/25 10:16:57;;;;;;;4.03;2.62;;;22.50;99.90;;;;;;1904640;74;21517;-75
2021/08/25 10:19:23;;;;;;;3.42;2.60;;;22.40;99.90;;;;;;1912547;75;21592;-74
2021/08/25 10:21:49;;;;;;;3.30;2.52;;;22.00;99.90;;;;;;1903545;74;21490;-76
2021/08/25 10:24:16;;;;;;;3.00;2.70;;;21.20;99.90;;;;;;1902513;74;21520;-76
2021/08/25 10:26:42;;;;;;;3.33;2.83;;;21.60;99.90;;;;;;1909097;74;21494;-76
2021/08/25 10:29:09;;;;;;;3.33;2.98;;;22.40;99.90;;;;;;1912548;74;21089;-76
2021/08/25 10:31:35;;;;;;;3.25;2.85;;;22.50;99.90;;;;;;1908355;74;21081;-76
2021/08/25 10:34:01;;;;;;;4.50;2.70;;;22.60;99.90;;;;;;1906898;74;21176;-76
2021/08/25 10:36:28;;;;;;;3.02;2.83;;;22.60;99.90;;;;;;1911968;74;21059;-76
2021/08/25 10:38:54;;;;;;;7.65;3.30;;;22.70;99.90;;;;;;1898851;74;21081;-76
2021/08/25 10:41:20;;;;;;;2.98;2.70;;;22.70;99.90;;;;;;1905986;74;21082;-76
2021/08/25 10:43:46;;;;;;;2.95;2.42;;;23.20;99.90;;;;;;1912413;74;21160;-76
2021/08/25 10:46:17;;;;;;;7.40;2.90;;;23.90;99.90;;;;;;1912081;75;21074;-76
2021/08/25 10:48:43;;;;;;;3.35;2.98;;;23.10;99.90;;;;;;1911988;74;21086;-76
2021/08/25 10:51:09;;;;;;;4.28;3.10;;;23.20;99.90;;;;;;1910705;74;21071;-76
2021/08/25 10:53:35;;;;;;;4.85;2.80;;;23.10;99.90;;;;;;1904817;74;21207;-78
2021/08/25 10:56:02;;;;;;;4.17;2.70;;;23.60;99.90;;;;;;1905066;74;21098;-76
2021/08/25 10:58:28;;;;;;;6.33;2.80;;;23.30;99.90;;;;;;1905157;74;21098;-76
2021/08/25 11:00:54;;;;;;;9.53;2.62;;;23.10;99.90;;;;;;1908108;74;21047;-76
2021/08/25 11:03:20;;;;;;;3.90;2.95;;;23.40;99.90;;;;;;1895615;74;21592;-76
2021/08/25 11:05:46;;;;;;;4.65;2.83;;;23.20;99.90;;;;;;1909370;74;21494;-77
2021/08/25 11:08:12;;;;;;;5.50;2.77;;;23.40;99.90;;;;;;1908146;74;21580;-77
2021/08/25 11:10:38;;;;;;;2.75;2.55;;;23.30;99.90;;;;;;1906321;74;21529;-77
2021/08/25 11:13:04;;;;;;;3.67;2.75;;;22.80;99.90;;;;;;1906273;74;21595;-77
2021/08/25 11:15:31;;;;;;;4.35;2.83;;;22.40;99.90;;;;;;1903032;74;21543;-76
2021/08/25 11:17:57;;;;;;;4.65;3.30;;;22.50;99.90;;;;;;1905394;74;21435;-76
2021/08/25 11:20:23;;;;;;;3.12;2.72;;;22.20;99.90;;;;;;1912852;74;21070;-77
2021/08/25 11:22:50;;;;;;;4.65;3.08;;;22.60;99.90;;;;;;1912121;75;21090;-77
2021/08/25 11:25:19;;;;;;;7.83;2.75;;;22.20;99.90;;;;;;1908436;74;21073;-77
2021/08/25 11:27:45;;;;;;;3.30;3.00;;;22.30;99.90;;;;;;1912109;75;21075;-77
2021/08/25 11:30:11;;;;;;;3.10;2.77;;;22.90;99.90;;;;;;1904216;74;21042;-76
2021/08/25 11:32:37;;;;;;;3.95;2.90;;;23.20;99.90;;;;;;1910722;74;21204;-76
2021/08/25 11:35:03;;;;;;;4.22;3.02;;;23.40;99.90;;;;;;1912392;75;21148;-77
2021/08/25 11:37:29;;;;;;;3.70;3.20;;;23.60;99.90;;;;;;1912009;75;21090;-77
2021/08/25 11:39:55;;;;;;;4.42;3.02;;;22.60;99.90;;;;;;1914203;72;21376;-76
2021/08/25 11:42:21;;;;;;;2.77;2.55;;;21.90;99.90;;;;;;1915350;72;21054;-76
2021/08/25 11:44:48;;;;;;;4.55;3.08;;;22.20;99.90;;;;;;1904800;73;21061;-77
2021/08/25 11:47:14;;;;;;;2.98;2.67;;;23.20;99.90;;;;;;1908674;74;21046;-77
2021/08/25 11:49:40;;;;;;;4.80;2.75;;;23.60;99.90;;;;;;1908302;74;21483;-77
2021/08/25 11:52:06;;;;;;;4.22;3.05;;;24.00;99.90;;;;;;1909715;74;21635;-77
2021/08/25 11:54:32;;;;;;;4.85;2.92;;;24.20;99.90;;;;;;1909055;74;21491;-77
2021/08/25 11:56:58;;;;;;;3.92;3.12;;;24.50;99.90;;;;;;1909363;74;21636;-77
2021/08/25 11:59:24;;;;;;;3.87;3.00;;;24.70;99.90;;;;;;1902105;74;21447;-78
2021/08/25 12:01:51;;;;;;;3.58;2.98;;;25.10;99.90;;;;;;1916805;74;21554;-78
2021/08/25 12:04:17;;;;;;;4.97;2.83;;;24.60;99.90;;;;;;1901791;74;21496;-78
2021/08/25 12:06:43;;;;;;;4.15;3.17;;;25.20;99.90;;;;;;1908529;74;21086;-78
2021/08/25 12:09:09;;;;;;;3.37;3.08;;;25.00;99.90;;;;;;1904637;74;21044;-78
2021/08/25 12:11:35;;;;;;;4.60;3.42;;;25.20;99.90;;;;;;1908683;74;21077;-78
2021/08/25 12:14:02;;;;;;;3.80;3.00;;;25.60;99.90;;;;;;1912244;74;21075;-78
2021/08/25 12:16:30;;;;;;;6.30;3.02;;;25.30;99.90;;;;;;1909943;74;21098;-78
2021/08/25 12:18:56;;;;;;;9.68;3.50;;;25.20;99.90;;;;;;1891136;74;21194;-78
2021/08/25 12:21:22;;;;;;;3.98;2.85;;;25.40;99.90;;;;;;1911900;74;21072;-78
2021/08/25 12:23:49;;;;;;;3.83;3.20;;;25.60;99.90;;;;;;1911185;74;21086;-78
2021/08/25 12:26:15;;;;;;;3.67;3.00;;;25.10;99.90;;;;;;1905888;74;21069;-78
2021/08/25 12:28:41;;;;;;;11.00;3.12;;;25.30;99.90;;;;;;1911291;74;21055;-78
2021/08/25 12:31:07;;;;;;;5.40;3.10;;;25.20;99.90;;;;;;1910699;74;21152;-78
2021/08/25 12:33:33;;;;;;;5.58;3.50;;;24.60;99.90;;;;;;1908525;74;21090;-78
2021/08/25 12:35:59;;;;;;;6.03;3.37;;;24.40;99.90;;;;;;1898096;74;21073;-78